sensor_id;sensor_type;location;lat;lon;timestamp;pressure;altitude;pressure_sealevel;temperature;humidity
11542;BME280;5827;49.482;7.716;2023-04-02T00:01:23;97929.03;;;10.11;100.00
11542;BME280;5827;49.482;7.716;2023-04-02T00:06:32;97937.06;;;10.11;100.00
11542;BME280;5827;49.482;7.716;2023-04-02T00:08:36;97932.31;;;10.23;100.00
11542;BME280;5827;49.482;7.716;2023-04-02T00:10:46;97932.03;;;10.19;100.00
11542;BME280;5827;49.482;7.716;2023-04-02T00:12:58;97934.25;;;10.28;100.00
11542;BME280;5827;49.482;7.716;2023-04-02T00:15:00;97937.72;;;10.28;100.00
11542;BME280;5827;49.482;7.716;2023-04-02T00:17:04;97941.78;;;10.36;100.00
11542;BME280;5827;49.482;7.716;2023-04-02T00:19:10;97942.28;;;10.28;100.00
11542;BME280;5827;49.482;7.716;2023-04-02T00:21:18;97945.16;;;10.21;100.00
11542;BME280;5827;49.482;7.716;2023-04-02T00:23:22;97946.50;;;10.18;100.00
11542;BME280;5827;49.482;7.716;2023-04-02T00:25:25;97945.16;;;10.21;100.00
11542;BME280;5827;49.482;7.716;2023-04-02T00:27:29;97943.34;;;10.27;100.00
11542;BME280;5827;49.482;7.716;2023-04-02T00:29:31;97952.72;;;10.34;100.00
11542;BME280;5827;49.482;7.716;2023-04-02T00:31:34;97957.53;;;10.27;100.00
11542;BME280;5827;49.482;7.716;2023-04-02T00:33:38;97958.34;;;10.33;100.00
11542;BME280;5827;49.482;7.716;2023-04-02T00:35:40;97958.34;;;10.33;100.00
11542;BME280;5827;49.482;7.716;2023-04-02T00:37:42;97954.59;;;10.34;100.00
11542;BME280;5827;49.482;7.716;2023-04-02T00:39:46;97958.34;;;10.28;100.00
11542;BME280;5827;49.482;7.716;2023-04-02T00:41:48;97951.13;;;10.33;100.00
11542;BME280;5827;49.482;7.716;2023-04-02T00:44:04;97962.09;;;10.32;100.00
11542;BME280;5827;49.482;7.716;2023-04-02T00:46:10;97958.84;;;10.25;100.00
11542;BME280;5827;49.482;7.716;2023-04-02T00:48:22;97958.34;;;10.33;100.00
11542;BME280;5827;49.482;7.716;2023-04-02T00:50:33;97958.66;;;10.36;100.00
11542;BME280;5827;49.482;7.716;2023-04-02T00:52:36;97968.31;;;10.42;100.00
11542;BME280;5827;49.482;7.716;2023-04-02T00:54:41;97972.06;;;10.41;100.00
11542;BME280;5827;49.482;7.716;2023-04-02T00:56:48;97965.94;;;10.51;100.00
11542;BME280;5827;49.482;7.716;2023-04-02T00:58:52;97960.31;;;10.58;100.00
11542;BME280;5827;49.482;7.716;2023-04-02T01:00:55;97965.66;;;10.58;100.00
11542;BME280;5827;49.482;7.716;2023-04-02T01:03:28;97971.59;;;10.60;100.00
11542;BME280;5827;49.482;7.716;2023-04-02T01:05:33;97969.72;;;10.60;100.00
11542;BME280;5827;49.482;7.716;2023-04-02T01:07:55;97978.84;;;10.69;100.00
11542;BME280;5827;49.482;7.716;2023-04-02T01:10:23;97968.09;;;10.59;100.00
11542;BME280;5827;49.482;7.716;2023-04-02T01:14:55;97974.03;;;10.72;100.00
11542;BME280;5827;49.482;7.716;2023-04-02T01:17:05;97977.53;;;10.72;100.00
11542;BME280;5827;49.482;7.716;2023-04-02T01:19:34;97981.56;;;10.80;100.00
11542;BME280;5827;49.482;7.716;2023-04-02T01:21:53;97968.09;;;10.59;100.00
11542;BME280;5827;49.482;7.716;2023-04-02T01:24:00;97963.47;;;10.39;100.00
11542;BME280;5827;49.482;7.716;2023-04-02T01:26:09;97974.47;;;10.43;100.00
11542;BME280;5827;49.482;7.716;2023-04-02T01:28:18;97984.38;;;10.48;100.00
11542;BME280;5827;49.482;7.716;2023-04-02T01:30:22;97977.97;;;10.49;100.00
11542;BME280;5827;49.482;7.716;2023-04-02T01:32:27;97987.00;;;10.27;100.00
11542;BME280;5827;49.482;7.716;2023-04-02T01:34:29;97981.69;;;10.42;100.00
11542;BME280;5827;49.482;7.716;2023-04-02T01:36:37;97986.00;;;10.49;100.00
11542;BME280;5827;49.482;7.716;2023-04-02T01:38:44;97986.84;;;10.54;100.00
11542;BME280;5827;49.482;7.716;2023-04-02T01:40:51;97987.34;;;10.51;100.00
11542;BME280;5827;49.482;7.716;2023-04-02T01:43:02;97994.84;;;10.49;100.00
11542;BME280;5827;49.482;7.716;2023-04-02T01:45:08;97990.03;;;10.51;100.00
11542;BME280;5827;49.482;7.716;2023-04-02T01:47:14;97993.53;;;10.62;100.00
11542;BME280;5827;49.482;7.716;2023-04-02T01:49:19;98003.22;;;10.68;100.00
11542;BME280;5827;49.482;7.716;2023-04-02T01:51:25;98002.38;;;10.57;100.00
11542;BME280;5827;49.482;7.716;2023-04-02T01:53:29;97999.66;;;10.47;100.00
11542;BME280;5827;49.482;7.716;2023-04-02T01:55:37;98004.00;;;10.58;100.00
11542;BME280;5827;49.482;7.716;2023-04-02T01:57:40;98011.78;;;10.65;100.00
11542;BME280;5827;49.482;7.716;2023-04-02T01:59:43;98015.53;;;10.64;100.00
11542;BME280;5827;49.482;7.716;2023-04-02T02:01:47;98016.34;;;10.69;100.00
11542;BME280;5827;49.482;7.716;2023-04-02T02:03:53;98021.72;;;10.69;100.00
11542;BME280;5827;49.482;7.716;2023-04-02T02:05:55;98013.69;;;10.75;100.00
11542;BME280;5827;49.482;7.716;2023-04-02T02:07:57;98011.00;;;10.69;100.00
11542;BME280;5827;49.482;7.716;2023-04-02T02:10:00;98010.19;;;10.69;100.00
11542;BME280;5827;49.482;7.716;2023-04-02T02:12:03;98023.06;;;10.72;100.00
11542;BME280;5827;49.482;7.716;2023-04-02T02:14:11;98022.25;;;10.72;100.00
11542;BME280;5827;49.482;7.716;2023-04-02T02:16:16;98024.91;;;10.72;100.00
11542;BME280;5827;49.482;7.716;2023-04-02T02:18:20;98015.03;;;10.72;100.00
11542;BME280;5827;49.482;7.716;2023-04-02T02:20:25;98022.50;;;10.70;100.00
11542;BME280;5827;49.482;7.716;2023-04-02T02:22:30;98027.34;;;10.73;100.00
11542;BME280;5827;49.482;7.716;2023-04-02T02:24:32;98027.31;;;10.63;100.00
11542;BME280;5827;49.482;7.716;2023-04-02T02:26:35;98031.59;;;10.64;100.00
11542;BME280;5827;49.482;7.716;2023-04-02T02:28:40;98031.59;;;10.59;100.00
11542;BME280;5827;49.482;7.716;2023-04-02T02:30:45;98035.31;;;10.58;100.00
11542;BME280;5827;49.482;7.716;2023-04-02T02:32:54;98034.97;;;10.39;100.00
11542;BME280;5827;49.482;7.716;2023-04-02T02:35:00;98037.63;;;10.39;100.00
11542;BME280;5827;49.482;7.716;2023-04-02T02:37:11;98038.25;;;10.51;100.00
11542;BME280;5827;49.482;7.716;2023-04-02T02:39:16;98038.53;;;10.55;100.00
11542;BME280;5827;49.482;7.716;2023-04-02T02:41:24;98036.94;;;10.59;100.00
11542;BME280;5827;49.482;7.716;2023-04-02T02:43:29;98042.06;;;10.65;100.00
11542;BME280;5827;49.482;7.716;2023-04-02T02:45:35;98044.13;;;10.53;100.00
11542;BME280;5827;49.482;7.716;2023-04-02T02:47:38;98044.41;;;10.52;100.00
11542;BME280;5827;49.482;7.716;2023-04-02T02:49:44;98041.69;;;10.47;100.00
11542;BME280;5827;49.482;7.716;2023-04-02T02:51:51;98049.75;;;10.47;100.00
11542;BME280;5827;49.482;7.716;2023-04-02T02:53:59;98047.84;;;10.42;100.00
11542;BME280;5827;49.482;7.716;2023-04-02T02:56:01;98048.66;;;10.48;100.00
11542;BME280;5827;49.482;7.716;2023-04-02T02:58:05;98051.03;;;10.44;100.00
11542;BME280;5827;49.482;7.716;2023-04-02T03:00:08;98064.41;;;10.39;100.00
11542;BME280;5827;49.482;7.716;2023-04-02T03:02:13;98056.34;;;10.34;100.00
11542;BME280;5827;49.482;7.716;2023-04-02T03:04:18;98062.06;;;10.48;100.00
11542;BME280;5827;49.482;7.716;2023-04-02T03:06:21;98063.94;;;10.47;100.00
11542;BME280;5827;49.482;7.716;2023-04-02T03:08:29;98064.50;;;10.49;100.00
11542;BME280;5827;49.482;7.716;2023-04-02T03:10:38;98063.91;;;10.42;100.00
11542;BME280;5827;49.482;7.716;2023-04-02T03:12:48;98072.44;;;10.39;100.00
11542;BME280;5827;49.482;7.716;2023-04-02T03:14:56;98070.31;;;10.36;100.00
11542;BME280;5827;49.482;7.716;2023-04-02T03:17:05;98074.41;;;10.16;100.00
11542;BME280;5827;49.482;7.716;2023-04-02T03:19:19;98075.78;;;10.19;100.00
11542;BME280;5827;49.482;7.716;2023-04-02T03:21:28;98081.19;;;10.24;100.00
11542;BME280;5827;49.482;7.716;2023-04-02T03:23:33;98078.56;;;10.29;100.00
11542;BME280;5827;49.482;7.716;2023-04-02T03:25:40;98083.38;;;10.27;100.00
11542;BME280;5827;49.482;7.716;2023-04-02T03:27:46;98091.16;;;10.34;100.00
11542;BME280;5827;49.482;7.716;2023-04-02T03:29:59;98090.59;;;10.27;100.00
11542;BME280;5827;49.482;7.716;2023-04-02T03:32:05;98090.50;;;10.22;100.00
11542;BME280;5827;49.482;7.716;2023-04-02T03:34:12;98092.03;;;10.12;100.00
11542;BME280;5827;49.482;7.716;2023-04-02T03:36:22;98094.81;;;10.23;100.00
11542;BME280;5827;49.482;7.716;2023-04-02T03:38:29;98097.50;;;10.23;100.00
11542;BME280;5827;49.482;7.716;2023-04-02T03:40:34;98098.94;;;10.03;100.00
11542;BME280;5827;49.482;7.716;2023-04-02T03:42:41;98095.97;;;9.95;100.00
11542;BME280;5827;49.482;7.716;2023-04-02T03:44:47;98091.63;;;9.93;100.00
11542;BME280;5827;49.482;7.716;2023-04-02T03:46:53;98103.06;;;10.16;100.00
11542;BME280;5827;49.482;7.716;2023-04-02T03:48:59;98106.56;;;10.22;100.00
11542;BME280;5827;49.482;7.716;2023-04-02T03:51:06;98106.56;;;10.22;100.00
11542;BME280;5827;49.482;7.716;2023-04-02T03:53:11;98110.19;;;10.32;100.00
11542;BME280;5827;49.482;7.716;2023-04-02T03:55:14;98112.75;;;10.22;100.00
11542;BME280;5827;49.482;7.716;2023-04-02T03:57:23;98113.31;;;10.24;100.00
11542;BME280;5827;49.482;7.716;2023-04-02T03:59:33;98118.59;;;10.14;100.00
11542;BME280;5827;49.482;7.716;2023-04-02T04:01:42;98118.34;;;10.21;100.00
11542;BME280;5827;49.482;7.716;2023-04-02T04:03:48;98122.16;;;10.25;100.00
11542;BME280;5827;49.482;7.716;2023-04-02T04:05:52;98124.88;;;10.30;100.00
11542;BME280;5827;49.482;7.716;2023-04-02T04:08:00;98125.28;;;10.16;100.00
11542;BME280;5827;49.482;7.716;2023-04-02T04:10:04;98126.84;;;10.12;100.00
11542;BME280;5827;49.482;7.716;2023-04-02T04:12:11;98135.75;;;10.18;100.00
11542;BME280;5827;49.482;7.716;2023-04-02T04:14:18;98131.34;;;10.07;100.00
11542;BME280;5827;49.482;7.716;2023-04-02T04:16:25;98132.97;;;10.08;100.00
11542;BME280;5827;49.482;7.716;2023-04-02T04:18:32;98144.53;;;10.13;100.00
11542;BME280;5827;49.482;7.716;2023-04-02T04:20:43;98140.81;;;10.14;100.00
11542;BME280;5827;49.482;7.716;2023-04-02T04:22:50;98143.47;;;10.14;100.00
11542;BME280;5827;49.482;7.716;2023-04-02T04:24:55;98144.78;;;10.12;100.00
11542;BME280;5827;49.482;7.716;2023-04-02T04:27:01;98154.94;;;10.10;100.00
11542;BME280;5827;49.482;7.716;2023-04-02T04:29:16;98148.56;;;10.16;100.00
11542;BME280;5827;49.482;7.716;2023-04-02T04:31:31;98158.06;;;10.29;100.00
11542;BME280;5827;49.482;7.716;2023-04-02T04:33:40;98167.16;;;10.28;100.00
11542;BME280;5827;49.482;7.716;2023-04-02T04:35:45;98162.69;;;10.38;100.00
11542;BME280;5827;49.482;7.716;2023-04-02T04:37:49;98164.25;;;10.34;100.00
11542;BME280;5827;49.482;7.716;2023-04-02T04:40:01;98167.16;;;10.28;100.00
11542;BME280;5827;49.482;7.716;2023-04-02T04:42:06;98165.44;;;10.16;100.00
11542;BME280;5827;49.482;7.716;2023-04-02T04:44:14;98174.22;;;10.12;100.00
11542;BME280;5827;49.482;7.716;2023-04-02T04:46:19;98172.31;;;10.07;100.00
11542;BME280;5827;49.482;7.716;2023-04-02T04:48:28;98177.66;;;10.07;100.00
11542;BME280;5827;49.482;7.716;2023-04-02T04:50:36;98184.66;;;10.08;100.00
11542;BME280;5827;49.482;7.716;2023-04-02T04:52:40;98186.25;;;10.09;100.00
11542;BME280;5827;49.482;7.716;2023-04-02T04:54:44;98186.22;;;10.04;100.00
11542;BME280;5827;49.482;7.716;2023-04-02T04:56:48;98184.66;;;10.08;100.00
11542;BME280;5827;49.482;7.716;2023-04-02T04:58:53;98187.25;;;10.03;100.00
11542;BME280;5827;49.482;7.716;2023-04-02T05:01:03;98191.03;;;10.07;100.00
11542;BME280;5827;49.482;7.716;2023-04-02T05:03:12;98186.72;;;10.01;100.00
11542;BME280;5827;49.482;7.716;2023-04-02T05:05:23;98196.03;;;9.99;100.00
11542;BME280;5827;49.482;7.716;2023-04-02T05:07:27;98196.94;;;10.04;100.00
11542;BME280;5827;49.482;7.716;2023-04-02T05:09:33;98206.34;;;10.12;100.00
11542;BME280;5827;49.482;7.716;2023-04-02T05:11:41;98206.88;;;10.09;100.00
11542;BME280;5827;49.482;7.716;2023-04-02T05:13:49;98208.19;;;10.06;100.00
11542;BME280;5827;49.482;7.716;2023-04-02T05:15:59;98211.91;;;10.05;100.00
11542;BME280;5827;49.482;7.716;2023-04-02T05:18:18;98211.44;;;10.08;100.00
11542;BME280;5827;49.482;7.716;2023-04-02T05:20:26;98220.53;;;10.12;100.00
11542;BME280;5827;49.482;7.716;2023-04-02T05:22:34;98220.50;;;10.07;100.00
11542;BME280;5827;49.482;7.716;2023-04-02T05:24:44;98218.69;;;10.13;100.00
11542;BME280;5827;49.482;7.716;2023-04-02T05:26:49;98228.13;;;10.21;100.00
11542;BME280;5827;49.482;7.716;2023-04-02T05:28:56;98224.69;;;10.25;100.00
11542;BME280;5827;49.482;7.716;2023-04-02T05:31:02;98229.94;;;10.15;100.00
11542;BME280;5827;49.482;7.716;2023-04-02T05:33:16;98240.97;;;10.18;100.00
11542;BME280;5827;49.482;7.716;2023-04-02T05:35:27;98236.13;;;10.21;100.00
11542;BME280;5827;49.482;7.716;2023-04-02T05:37:32;98240.69;;;10.20;100.00
11542;BME280;5827;49.482;7.716;2023-04-02T05:39:34;98242.94;;;10.28;100.00
11542;BME280;5827;49.482;7.716;2023-04-02T05:41:38;98250.72;;;10.30;100.00
11542;BME280;5827;49.482;7.716;2023-04-02T05:43:45;98244.59;;;10.34;100.00
11542;BME280;5827;49.482;7.716;2023-04-02T05:45:52;98251.06;;;10.38;100.00
11542;BME280;5827;49.482;7.716;2023-04-02T05:47:56;98254.97;;;10.26;100.00
11542;BME280;5827;49.482;7.716;2023-04-02T05:50:14;98256.88;;;10.30;100.00
11542;BME280;5827;49.482;7.716;2023-04-02T05:52:21;98256.13;;;10.35;100.00
11542;BME280;5827;49.482;7.716;2023-04-02T05:54:28;98269.28;;;10.36;100.00
11542;BME280;5827;49.482;7.716;2023-04-02T05:56:36;98270.91;;;10.42;100.00
11542;BME280;5827;49.482;7.716;2023-04-02T05:58:42;98270.91;;;10.42;100.00
11542;BME280;5827;49.482;7.716;2023-04-02T06:00:57;98277.69;;;10.50;100.00
11542;BME280;5827;49.482;7.716;2023-04-02T06:03:05;98279.75;;;10.43;100.00
11542;BME280;5827;49.482;7.716;2023-04-02T06:05:12;98283.84;;;10.51;100.00
11542;BME280;5827;49.482;7.716;2023-04-02T06:07:18;98287.72;;;10.33;100.00
11542;BME280;5827;49.482;7.716;2023-04-02T06:09:29;98292.09;;;9.95;100.00
11542;BME280;5827;49.482;7.716;2023-04-02T06:11:38;98297.63;;;10.10;100.00
11542;BME280;5827;49.482;7.716;2023-04-02T06:13:41;98301.84;;;10.06;100.00
11542;BME280;5827;49.482;7.716;2023-04-02T06:15:43;98305.81;;;10.26;100.00
11542;BME280;5827;49.482;7.716;2023-04-02T06:17:46;98308.81;;;10.07;100.00
11542;BME280;5827;49.482;7.716;2023-04-02T06:19:49;98314.00;;;10.14;100.00
11542;BME280;5827;49.482;7.716;2023-04-02T06:21:52;98312.19;;;9.98;100.00
11542;BME280;5827;49.482;7.716;2023-04-02T06:24:01;98319.91;;;9.94;100.00
11542;BME280;5827;49.482;7.716;2023-04-02T06:26:09;98321.03;;;9.98;100.00
11542;BME280;5827;49.482;7.716;2023-04-02T06:28:14;98321.34;;;10.02;100.00
11542;BME280;5827;49.482;7.716;2023-04-02T06:30:19;98323.75;;;10.03;100.00
11542;BME280;5827;49.482;7.716;2023-04-02T06:32:22;98331.34;;;10.11;100.00
11542;BME280;5827;49.482;7.716;2023-04-02T06:34:28;98333.44;;;10.04;100.00
11542;BME280;5827;49.482;7.716;2023-04-02T06:36:31;98328.88;;;9.83;100.00
11542;BME280;5827;49.482;7.716;2023-04-02T06:38:34;98340.16;;;9.63;100.00
11542;BME280;5827;49.482;7.716;2023-04-02T06:40:40;98350.28;;;9.83;100.00
11542;BME280;5827;49.482;7.716;2023-04-02T06:42:44;98349.97;;;10.01;100.00
11542;BME280;5827;49.482;7.716;2023-04-02T06:44:48;98352.66;;;10.01;100.00
11542;BME280;5827;49.482;7.716;2023-04-02T06:46:52;98351.69;;;10.12;100.00
11542;BME280;5827;49.482;7.716;2023-04-02T06:48:59;98352.31;;;10.19;100.00
11542;BME280;5827;49.482;7.716;2023-04-02T06:51:05;98359.63;;;10.24;100.00
11542;BME280;5827;49.482;7.716;2023-04-02T06:53:18;98364.81;;;10.09;100.00
11542;BME280;5827;49.482;7.716;2023-04-02T06:55:29;98368.38;;;10.19;100.00
11542;BME280;5827;49.482;7.716;2023-04-02T06:57:32;98374.28;;;10.22;100.00
11542;BME280;5827;49.482;7.716;2023-04-02T06:59:36;98378.03;;;10.21;100.00
11542;BME280;5827;49.482;7.716;2023-04-02T07:01:40;98379.53;;;10.11;100.00
11542;BME280;5827;49.482;7.716;2023-04-02T07:03:44;98383.25;;;10.27;100.00
11542;BME280;5827;49.482;7.716;2023-04-02T07:05:46;98389.16;;;10.29;100.00
11542;BME280;5827;49.482;7.716;2023-04-02T07:07:47;98389.19;;;10.56;100.00
11542;BME280;5827;49.482;7.716;2023-04-02T07:09:49;98391.50;;;10.48;100.00
11542;BME280;5827;49.482;7.716;2023-04-02T07:11:50;98404.03;;;10.69;100.00
11542;BME280;5827;49.482;7.716;2023-04-02T07:13:52;98405.59;;;10.65;100.00
11542;BME280;5827;49.482;7.716;2023-04-02T07:15:54;98406.72;;;10.69;100.00
11542;BME280;5827;49.482;7.716;2023-04-02T07:17:56;98419.47;;;10.84;100.00
11542;BME280;5827;49.482;7.716;2023-04-02T07:19:58;98417.63;;;10.89;100.00
11542;BME280;5827;49.482;7.716;2023-04-02T07:22:00;98419.09;;;11.02;100.00
11542;BME280;5827;49.482;7.716;2023-04-02T07:24:01;98429.13;;;11.17;100.00
11542;BME280;5827;49.482;7.716;2023-04-02T07:26:04;98427.56;;;11.21;100.00
11542;BME280;5827;49.482;7.716;2023-04-02T07:28:06;98426.75;;;11.20;100.00
11542;BME280;5827;49.482;7.716;2023-04-02T07:30:08;98431.56;;;11.18;100.00
11542;BME280;5827;49.482;7.716;2023-04-02T07:32:12;98440.13;;;11.15;100.00
11542;BME280;5827;49.482;7.716;2023-04-02T07:34:13;98436.41;;;11.22;100.00
11542;BME280;5827;49.482;7.716;2023-04-02T07:36:17;98443.84;;;11.09;100.00
11542;BME280;5827;49.482;7.716;2023-04-02T07:38:18;98446.72;;;11.35;100.00
11542;BME280;5827;49.482;7.716;2023-04-02T07:40:20;98449.09;;;11.31;100.00
11542;BME280;5827;49.482;7.716;2023-04-02T07:42:23;98457.22;;;11.36;100.00
11542;BME280;5827;49.482;7.716;2023-04-02T07:44:25;98461.81;;;11.41;100.00
11542;BME280;5827;49.482;7.716;2023-04-02T07:46:26;98457.63;;;11.55;100.00
11542;BME280;5827;49.482;7.716;2023-04-02T07:48:29;98457.69;;;11.65;100.00
11542;BME280;5827;49.482;7.716;2023-04-02T07:50:31;98452.28;;;11.60;100.00
11542;BME280;5827;49.482;7.716;2023-04-02T07:52:33;98464.13;;;11.64;100.00
11542;BME280;5827;49.482;7.716;2023-04-02T07:54:34;98461.47;;;11.69;100.00
11542;BME280;5827;49.482;7.716;2023-04-02T07:56:37;98467.84;;;11.63;100.00
11542;BME280;5827;49.482;7.716;2023-04-02T07:58:38;98476.22;;;11.35;100.00
11542;BME280;5827;49.482;7.716;2023-04-02T08:00:41;98478.84;;;11.62;100.00
11542;BME280;5827;49.482;7.716;2023-04-02T08:02:42;98486.69;;;11.68;100.00
11542;BME280;5827;49.482;7.716;2023-04-02T08:04:45;98486.63;;;11.63;100.00
11542;BME280;5827;49.482;7.716;2023-04-02T08:06:47;98501.81;;;11.80;100.00
11542;BME280;5827;49.482;7.716;2023-04-02T08:08:49;98501.06;;;11.84;100.00
11542;BME280;5827;49.482;7.716;2023-04-02T08:10:51;98501.13;;;11.62;100.00
11542;BME280;5827;49.482;7.716;2023-04-02T08:12:52;98506.50;;;11.62;100.00
11542;BME280;5827;49.482;7.716;2023-04-02T08:14:53;98509.00;;;11.74;100.00
11542;BME280;5827;49.482;7.716;2023-04-02T08:16:55;98508.75;;;11.76;100.00
11542;BME280;5827;49.482;7.716;2023-04-02T08:18:57;98518.41;;;11.77;100.00
11542;BME280;5827;49.482;7.716;2023-04-02T08:20:59;98518.06;;;11.68;100.00
11542;BME280;5827;49.482;7.716;2023-04-02T08:23:01;98526.69;;;11.70;100.00
11542;BME280;5827;49.482;7.716;2023-04-02T08:25:03;98528.66;;;11.80;100.00
11542;BME280;5827;49.482;7.716;2023-04-02T08:27:05;98521.81;;;11.35;100.00
11542;BME280;5827;49.482;7.716;2023-04-02T08:29:07;98524.16;;;11.26;100.00
11542;BME280;5827;49.482;7.716;2023-04-02T08:31:09;98534.31;;;11.51;100.00
11542;BME280;5827;49.482;7.716;2023-04-02T08:33:10;98535.97;;;11.57;100.00
11542;BME280;5827;49.482;7.716;2023-04-02T08:35:13;98537.38;;;11.65;100.00
11542;BME280;5827;49.482;7.716;2023-04-02T08:37:17;98545.22;;;11.71;100.00
11542;BME280;5827;49.482;7.716;2023-04-02T08:39:18;98545.97;;;11.67;100.00
11542;BME280;5827;49.482;7.716;2023-04-02T08:41:21;98550.34;;;11.73;100.00
11542;BME280;5827;49.482;7.716;2023-04-02T08:43:35;98558.41;;;11.73;100.00
11542;BME280;5827;49.482;7.716;2023-04-02T08:45:49;98558.31;;;11.68;100.00
11542;BME280;5827;49.482;7.716;2023-04-02T08:47:56;98566.13;;;11.69;100.00
11542;BME280;5827;49.482;7.716;2023-04-02T08:50:02;98567.25;;;11.74;100.00
11542;BME280;5827;49.482;7.716;2023-04-02T08:52:04;98569.91;;;11.68;100.00
11542;BME280;5827;49.482;7.716;2023-04-02T08:54:13;98575.94;;;11.86;100.00
11542;BME280;5827;49.482;7.716;2023-04-02T08:56:19;98575.00;;;11.97;100.00
11542;BME280;5827;49.482;7.716;2023-04-02T08:58:31;98574.53;;;12.05;100.00
11542;BME280;5827;49.482;7.716;2023-04-02T09:00:36;98575.16;;;12.23;100.00
11542;BME280;5827;49.482;7.716;2023-04-02T09:02:41;98577.94;;;12.33;100.00
11542;BME280;5827;49.482;7.716;2023-04-02T09:04:46;98586.59;;;12.50;100.00
11542;BME280;5827;49.482;7.716;2023-04-02T09:06:48;98585.16;;;12.32;100.00
11542;BME280;5827;49.482;7.716;2023-04-02T09:08:53;98588.06;;;12.68;100.00
11542;BME280;5827;49.482;7.716;2023-04-02T09:11:00;98591.94;;;12.92;100.00
11542;BME280;5827;49.482;7.716;2023-04-02T09:13:04;98602.13;;;12.85;100.00
11542;BME280;5827;49.482;7.716;2023-04-02T09:15:16;98599.69;;;12.79;100.00
11542;BME280;5827;49.482;7.716;2023-04-02T09:17:23;98605.47;;;13.13;99.91
11542;BME280;5827;49.482;7.716;2023-04-02T09:19:30;98610.50;;;12.99;98.20
11542;BME280;5827;49.482;7.716;2023-04-02T09:21:37;98615.09;;;12.98;98.72
11542;BME280;5827;49.482;7.716;2023-04-02T09:23:41;98621.97;;;13.32;96.71
11542;BME280;5827;49.482;7.716;2023-04-02T09:25:44;98624.09;;;13.25;97.54
11542;BME280;5827;49.482;7.716;2023-04-02T09:27:49;98619.25;;;13.32;93.34
11542;BME280;5827;49.482;7.716;2023-04-02T09:29:52;98624.16;;;13.50;93.57
11542;BME280;5827;49.482;7.716;2023-04-02T09:32:03;98630.13;;;13.62;96.28
11542;BME280;5827;49.482;7.716;2023-04-02T09:34:25;98633.09;;;13.81;96.15
11542;BME280;5827;49.482;7.716;2023-04-02T09:36:33;98630.31;;;12.78;96.23
11542;BME280;5827;49.482;7.716;2023-04-02T09:38:35;98636.22;;;13.32;94.85
11542;BME280;5827;49.482;7.716;2023-04-02T09:40:43;98638.72;;;13.59;93.26
11542;BME280;5827;49.482;7.716;2023-04-02T09:42:48;98641.50;;;13.07;94.62
11542;BME280;5827;49.482;7.716;2023-04-02T09:44:49;98641.09;;;13.35;95.64
11542;BME280;5827;49.482;7.716;2023-04-02T09:46:55;98649.44;;;13.44;94.49
11542;BME280;5827;49.482;7.716;2023-04-02T09:49:00;98658.59;;;13.43;91.03
11542;BME280;5827;49.482;7.716;2023-04-02T09:51:10;98655.03;;;13.27;92.55
11542;BME280;5827;49.482;7.716;2023-04-02T09:53:25;98653.81;;;12.97;95.72
11542;BME280;5827;49.482;7.716;2023-04-02T09:55:28;98649.94;;;12.78;97.43
11542;BME280;5827;49.482;7.716;2023-04-02T09:57:31;98656.63;;;13.23;97.16
11542;BME280;5827;49.482;7.716;2023-04-02T09:59:33;98661.63;;;12.99;97.91
11542;BME280;5827;49.482;7.716;2023-04-02T10:01:38;98651.34;;;12.91;100.00
11542;BME280;5827;49.482;7.716;2023-04-02T10:03:41;98661.19;;;12.70;99.56
11542;BME280;5827;49.482;7.716;2023-04-02T10:05:43;98663.34;;;12.73;99.54
11542;BME280;5827;49.482;7.716;2023-04-02T10:07:47;98670.53;;;12.62;100.00
11542;BME280;5827;49.482;7.716;2023-04-02T10:09:56;98670.88;;;12.34;100.00
11542;BME280;5827;49.482;7.716;2023-04-02T10:11:58;98674.56;;;12.28;100.00
11542;BME280;5827;49.482;7.716;2023-04-02T10:14:03;98676.59;;;12.10;100.00
11542;BME280;5827;49.482;7.716;2023-04-02T10:16:10;98684.56;;;12.32;100.00
11542;BME280;5827;49.482;7.716;2023-04-02T10:18:20;98690.84;;;11.84;100.00
11542;BME280;5827;49.482;7.716;2023-04-02T10:20:26;98686.84;;;12.18;100.00
11542;BME280;5827;49.482;7.716;2023-04-02T10:22:29;98687.22;;;11.73;100.00
11542;BME280;5827;49.482;7.716;2023-04-02T10:24:30;98688.72;;;11.86;100.00
11542;BME280;5827;49.482;7.716;2023-04-02T10:26:45;98703.28;;;11.95;100.00
11542;BME280;5827;49.482;7.716;2023-04-02T10:29:07;98701.28;;;12.07;100.00
11542;BME280;5827;49.482;7.716;2023-04-02T10:31:15;98698.25;;;11.77;100.00
11542;BME280;5827;49.482;7.716;2023-04-02T10:33:25;98709.94;;;11.87;100.00
11542;BME280;5827;49.482;7.716;2023-04-02T10:35:39;98711.19;;;11.80;100.00
11542;BME280;5827;49.482;7.716;2023-04-02T10:40:26;98725.69;;;11.57;100.00
11542;BME280;5827;49.482;7.716;2023-04-02T10:42:35;98721.66;;;11.81;100.00
11542;BME280;5827;49.482;7.716;2023-04-02T10:44:45;98732.94;;;11.17;100.00
11542;BME280;5827;49.482;7.716;2023-04-02T10:47:05;98724.00;;;10.90;100.00
11542;BME280;5827;49.482;7.716;2023-04-02T10:49:14;98747.56;;;10.71;100.00
11542;BME280;5827;49.482;7.716;2023-04-02T10:51:25;98734.34;;;10.64;100.00
11542;BME280;5827;49.482;7.716;2023-04-02T10:53:32;98740.50;;;10.82;100.00
11542;BME280;5827;49.482;7.716;2023-04-02T10:55:41;98757.81;;;10.91;100.00
11542;BME280;5827;49.482;7.716;2023-04-02T10:57:44;98758.63;;;10.91;100.00
11542;BME280;5827;49.482;7.716;2023-04-02T10:59:50;98765.25;;;11.06;100.00
11542;BME280;5827;49.482;7.716;2023-04-02T11:01:56;98773.63;;;11.09;100.00
11542;BME280;5827;49.482;7.716;2023-04-02T11:04:03;98764.16;;;10.68;100.00
11542;BME280;5827;49.482;7.716;2023-04-02T11:06:13;98772.50;;;11.05;100.00
11542;BME280;5827;49.482;7.716;2023-04-02T11:08:20;98780.84;;;11.09;100.00
11542;BME280;5827;49.482;7.716;2023-04-02T11:10:25;98779.31;;;10.96;100.00
11542;BME280;5827;49.482;7.716;2023-04-02T11:12:35;98795.22;;;11.03;100.00
11542;BME280;5827;49.482;7.716;2023-04-02T11:14:38;98784.88;;;10.73;100.00
11542;BME280;5827;49.482;7.716;2023-04-02T11:16:41;98792.16;;;10.77;100.00
11542;BME280;5827;49.482;7.716;2023-04-02T11:19:19;98803.31;;;10.86;100.00